sensor_id;sensor_type;location;lat;lon;timestamp;P1;durP1;ratioP1;P2;durP2;ratioP2
43841;SDS011;29495;49.970;20.842;2022-11-13T00:02:15;30.33;;;15.52;;
43841;SDS011;29495;49.970;20.842;2022-11-13T00:04:59;32.80;;;15.98;;
43841;SDS011;29495;49.970;20.842;2022-11-13T00:07:44;30.65;;;14.30;;
43841;SDS011;29495;49.970;20.842;2022-11-13T00:10:28;31.20;;;14.90;;
43841;SDS011;29495;49.970;20.842;2022-11-13T00:13:13;38.10;;;16.25;;
43841;SDS011;29495;49.970;20.842;2022-11-13T00:15:58;36.35;;;15.25;;
43841;SDS011;29495;49.970;20.842;2022-11-13T00:18:44;31.65;;;15.73;;
43841;SDS011;29495;49.970;20.842;2022-11-13T00:21:29;32.47;;;15.75;;
43841;SDS011;29495;49.970;20.842;2022-11-13T00:24:14;38.05;;;17.02;;
43841;SDS011;29495;49.970;20.842;2022-11-13T00:26:59;35.65;;;17.63;;
43841;SDS011;29495;49.970;20.842;2022-11-13T00:29:43;39.42;;;17.73;;
43841;SDS011;29495;49.970;20.842;2022-11-13T00:32:28;35.35;;;16.95;;
43841;SDS011;29495;49.970;20.842;2022-11-13T00:35:13;38.13;;;19.48;;
43841;SDS011;29495;49.970;20.842;2022-11-13T00:37:58;38.75;;;18.20;;
43841;SDS011;29495;49.970;20.842;2022-11-13T00:40:42;34.65;;;17.30;;
43841;SDS011;29495;49.970;20.842;2022-11-13T00:43:27;36.33;;;17.92;;
43841;SDS011;29495;49.970;20.842;2022-11-13T00:46:11;36.90;;;17.67;;
43841;SDS011;29495;49.970;20.842;2022-11-13T00:48:56;33.28;;;17.27;;
43841;SDS011;29495;49.970;20.842;2022-11-13T00:51:41;30.33;;;15.35;;
43841;SDS011;29495;49.970;20.842;2022-11-13T00:54:26;32.50;;;16.90;;
43841;SDS011;29495;49.970;20.842;2022-11-13T00:57:12;37.83;;;19.00;;
43841;SDS011;29495;49.970;20.842;2022-11-13T00:59:57;34.72;;;17.02;;
43841;SDS011;29495;49.970;20.842;2022-11-13T01:02:41;42.70;;;20.85;;
43841;SDS011;29495;49.970;20.842;2022-11-13T01:05:26;41.38;;;19.23;;
43841;SDS011;29495;49.970;20.842;2022-11-13T01:08:11;31.80;;;16.33;;
43841;SDS011;29495;49.970;20.842;2022-11-13T01:10:57;33.60;;;17.65;;
43841;SDS011;29495;49.970;20.842;2022-11-13T01:13:42;40.13;;;18.98;;
43841;SDS011;29495;49.970;20.842;2022-11-13T01:16:28;40.28;;;18.52;;
43841;SDS011;29495;49.970;20.842;2022-11-13T01:19:13;37.42;;;18.05;;
43841;SDS011;29495;49.970;20.842;2022-11-13T01:21:58;40.08;;;17.58;;
43841;SDS011;29495;49.970;20.842;2022-11-13T01:24:42;37.65;;;18.20;;
43841;SDS011;29495;49.970;20.842;2022-11-13T01:27:26;42.55;;;21.52;;
43841;SDS011;29495;49.970;20.842;2022-11-13T01:30:11;42.15;;;20.35;;
43841;SDS011;29495;49.970;20.842;2022-11-13T01:32:55;40.83;;;19.55;;
43841;SDS011;29495;49.970;20.842;2022-11-13T01:35:40;41.72;;;21.45;;
43841;SDS011;29495;49.970;20.842;2022-11-13T01:38:24;43.42;;;20.02;;
43841;SDS011;29495;49.970;20.842;2022-11-13T01:41:42;42.72;;;20.02;;
43841;SDS011;29495;49.970;20.842;2022-11-13T01:44:19;38.10;;;17.98;;
43841;SDS011;29495;49.970;20.842;2022-11-13T01:47:04;38.10;;;19.55;;
43841;SDS011;29495;49.970;20.842;2022-11-13T01:49:52;40.83;;;18.23;;
43841;SDS011;29495;49.970;20.842;2022-11-13T01:52:39;43.05;;;18.98;;
43841;SDS011;29495;49.970;20.842;2022-11-13T01:55:25;33.38;;;16.80;;
43841;SDS011;29495;49.970;20.842;2022-11-13T01:58:09;37.45;;;18.08;;
43841;SDS011;29495;49.970;20.842;2022-11-13T02:00:55;29.85;;;15.57;;
43841;SDS011;29495;49.970;20.842;2022-11-13T02:03:40;31.85;;;16.08;;
43841;SDS011;29495;49.970;20.842;2022-11-13T02:06:26;41.88;;;18.00;;
43841;SDS011;29495;49.970;20.842;2022-11-13T02:09:13;32.40;;;16.23;;
43841;SDS011;29495;49.970;20.842;2022-11-13T02:12:00;31.52;;;16.67;;
43841;SDS011;29495;49.970;20.842;2022-11-13T02:14:46;31.80;;;16.23;;
43841;SDS011;29495;49.970;20.842;2022-11-13T02:17:44;36.60;;;17.48;;
43841;SDS011;29495;49.970;20.842;2022-11-13T02:23:41;33.88;;;16.20;;
43841;SDS011;29495;49.970;20.842;2022-11-13T02:26:46;28.33;;;14.73;;
43841;SDS011;29495;49.970;20.842;2022-11-13T02:29:33;27.67;;;13.88;;
43841;SDS011;29495;49.970;20.842;2022-11-13T02:32:18;36.72;;;18.10;;
43841;SDS011;29495;49.970;20.842;2022-11-13T02:35:03;39.58;;;19.13;;
43841;SDS011;29495;49.970;20.842;2022-11-13T02:37:48;37.45;;;17.88;;
43841;SDS011;29495;49.970;20.842;2022-11-13T02:40:32;36.75;;;18.73;;
43841;SDS011;29495;49.970;20.842;2022-11-13T02:43:17;38.75;;;19.13;;
43841;SDS011;29495;49.970;20.842;2022-11-13T02:46:02;38.50;;;18.55;;
43841;SDS011;29495;49.970;20.842;2022-11-13T02:48:46;43.75;;;20.52;;
43841;SDS011;29495;49.970;20.842;2022-11-13T02:51:31;36.90;;;18.15;;
43841;SDS011;29495;49.970;20.842;2022-11-13T02:54:15;37.03;;;18.60;;
43841;SDS011;29495;49.970;20.842;2022-11-13T02:57:00;31.23;;;16.20;;
43841;SDS011;29495;49.970;20.842;2022-11-13T02:59:44;37.63;;;17.30;;
43841;SDS011;29495;49.970;20.842;2022-11-13T03:02:29;36.95;;;17.00;;
43841;SDS011;29495;49.970;20.842;2022-11-13T03:05:13;39.28;;;18.30;;
43841;SDS011;29495;49.970;20.842;2022-11-13T03:07:58;36.85;;;18.38;;
43841;SDS011;29495;49.970;20.842;2022-11-13T03:10:42;32.58;;;16.85;;
43841;SDS011;29495;49.970;20.842;2022-11-13T03:13:27;32.30;;;16.63;;
43841;SDS011;29495;49.970;20.842;2022-11-13T03:16:12;32.78;;;16.15;;
43841;SDS011;29495;49.970;20.842;2022-11-13T03:18:58;32.53;;;16.50;;
43841;SDS011;29495;49.970;20.842;2022-11-13T03:21:43;30.95;;;15.30;;
43841;SDS011;29495;49.970;20.842;2022-11-13T03:24:27;28.75;;;14.05;;
43841;SDS011;29495;49.970;20.842;2022-11-13T03:27:12;29.88;;;14.40;;
43841;SDS011;29495;49.970;20.842;2022-11-13T03:29:57;29.80;;;14.15;;
43841;SDS011;29495;49.970;20.842;2022-11-13T03:32:41;24.50;;;12.07;;
43841;SDS011;29495;49.970;20.842;2022-11-13T03:35:26;24.13;;;11.95;;
43841;SDS011;29495;49.970;20.842;2022-11-13T03:38:12;23.08;;;11.32;;
43841;SDS011;29495;49.970;20.842;2022-11-13T03:40:56;22.77;;;11.95;;
43841;SDS011;29495;49.970;20.842;2022-11-13T03:43:41;24.77;;;11.55;;
43841;SDS011;29495;49.970;20.842;2022-11-13T03:46:26;22.10;;;11.27;;
43841;SDS011;29495;49.970;20.842;2022-11-13T03:49:11;19.60;;;10.30;;
43841;SDS011;29495;49.970;20.842;2022-11-13T03:51:55;18.33;;;9.90;;
43841;SDS011;29495;49.970;20.842;2022-11-13T03:54:40;16.85;;;9.80;;
43841;SDS011;29495;49.970;20.842;2022-11-13T03:57:24;20.80;;;10.52;;
43841;SDS011;29495;49.970;20.842;2022-11-13T04:00:09;18.83;;;10.45;;
43841;SDS011;29495;49.970;20.842;2022-11-13T04:02:54;20.52;;;10.65;;
43841;SDS011;29495;49.970;20.842;2022-11-13T04:05:38;21.27;;;10.55;;
43841;SDS011;29495;49.970;20.842;2022-11-13T04:08:24;19.10;;;9.75;;
43841;SDS011;29495;49.970;20.842;2022-11-13T04:11:10;21.90;;;11.60;;
43841;SDS011;29495;49.970;20.842;2022-11-13T04:13:55;20.35;;;10.35;;
43841;SDS011;29495;49.970;20.842;2022-11-13T04:16:39;24.42;;;11.20;;
43841;SDS011;29495;49.970;20.842;2022-11-13T04:19:24;22.00;;;10.70;;
43841;SDS011;29495;49.970;20.842;2022-11-13T04:22:08;19.67;;;10.63;;
43841;SDS011;29495;49.970;20.842;2022-11-13T04:24:53;21.08;;;10.77;;
43841;SDS011;29495;49.970;20.842;2022-11-13T04:27:37;18.02;;;9.88;;
43841;SDS011;29495;49.970;20.842;2022-11-13T04:30:22;19.02;;;10.75;;
43841;SDS011;29495;49.970;20.842;2022-11-13T04:33:06;21.52;;;10.57;;
43841;SDS011;29495;49.970;20.842;2022-11-13T04:35:51;17.95;;;8.55;;
43841;SDS011;29495;49.970;20.842;2022-11-13T04:38:36;16.52;;;9.27;;
43841;SDS011;29495;49.970;20.842;2022-11-13T04:41:21;22.95;;;10.23;;
43841;SDS011;29495;49.970;20.842;2022-11-13T04:44:24;20.50;;;10.00;;
43841;SDS011;29495;49.970;20.842;2022-11-13T04:47:09;18.13;;;9.10;;
43841;SDS011;29495;49.970;20.842;2022-11-13T04:49:55;17.85;;;8.98;;
43841;SDS011;29495;49.970;20.842;2022-11-13T04:52:39;17.10;;;8.75;;
43841;SDS011;29495;49.970;20.842;2022-11-13T04:55:24;16.45;;;8.45;;
43841;SDS011;29495;49.970;20.842;2022-11-13T04:58:09;15.10;;;8.77;;
43841;SDS011;29495;49.970;20.842;2022-11-13T05:00:53;21.67;;;10.93;;
43841;SDS011;29495;49.970;20.842;2022-11-13T05:03:38;18.40;;;9.20;;
43841;SDS011;29495;49.970;20.842;2022-11-13T05:06:23;17.77;;;9.00;;
43841;SDS011;29495;49.970;20.842;2022-11-13T05:09:07;17.60;;;9.25;;
43841;SDS011;29495;49.970;20.842;2022-11-13T05:11:54;18.67;;;8.55;;
43841;SDS011;29495;49.970;20.842;2022-11-13T05:14:38;17.65;;;9.18;;
43841;SDS011;29495;49.970;20.842;2022-11-13T05:17:24;16.42;;;8.93;;
43841;SDS011;29495;49.970;20.842;2022-11-13T05:20:08;16.75;;;8.82;;
43841;SDS011;29495;49.970;20.842;2022-11-13T05:22:53;20.20;;;9.93;;
43841;SDS011;29495;49.970;20.842;2022-11-13T05:25:38;18.52;;;10.18;;
43841;SDS011;29495;49.970;20.842;2022-11-13T05:28:22;20.48;;;10.32;;
43841;SDS011;29495;49.970;20.842;2022-11-13T05:31:10;17.65;;;10.88;;
43841;SDS011;29495;49.970;20.842;2022-11-13T05:33:56;23.65;;;12.10;;
43841;SDS011;29495;49.970;20.842;2022-11-13T05:36:40;19.65;;;11.18;;
43841;SDS011;29495;49.970;20.842;2022-11-13T05:39:25;20.30;;;11.75;;
43841;SDS011;29495;49.970;20.842;2022-11-13T05:42:10;16.42;;;9.27;;
43841;SDS011;29495;49.970;20.842;2022-11-13T05:44:54;17.35;;;9.30;;
43841;SDS011;29495;49.970;20.842;2022-11-13T05:47:38;15.93;;;9.18;;
43841;SDS011;29495;49.970;20.842;2022-11-13T05:50:23;15.85;;;8.15;;
43841;SDS011;29495;49.970;20.842;2022-11-13T05:53:08;17.08;;;9.25;;
43841;SDS011;29495;49.970;20.842;2022-11-13T05:55:52;16.27;;;8.75;;
43841;SDS011;29495;49.970;20.842;2022-11-13T05:58:37;17.35;;;9.25;;
43841;SDS011;29495;49.970;20.842;2022-11-13T06:01:29;17.48;;;10.05;;
43841;SDS011;29495;49.970;20.842;2022-11-13T06:07:06;18.90;;;10.60;;
43841;SDS011;29495;49.970;20.842;2022-11-13T06:09:50;21.98;;;11.07;;
43841;SDS011;29495;49.970;20.842;2022-11-13T06:12:35;22.05;;;11.55;;
43841;SDS011;29495;49.970;20.842;2022-11-13T06:15:19;24.10;;;12.02;;
43841;SDS011;29495;49.970;20.842;2022-11-13T06:18:04;21.02;;;11.05;;
43841;SDS011;29495;49.970;20.842;2022-11-13T06:20:48;21.63;;;11.30;;
43841;SDS011;29495;49.970;20.842;2022-11-13T06:23:34;20.02;;;11.27;;
43841;SDS011;29495;49.970;20.842;2022-11-13T06:26:21;21.42;;;10.63;;
43841;SDS011;29495;49.970;20.842;2022-11-13T06:29:11;19.10;;;10.13;;
43841;SDS011;29495;49.970;20.842;2022-11-13T06:31:56;19.60;;;10.52;;
43841;SDS011;29495;49.970;20.842;2022-11-13T06:34:40;20.15;;;10.20;;
43841;SDS011;29495;49.970;20.842;2022-11-13T06:37:25;18.63;;;10.48;;
43841;SDS011;29495;49.970;20.842;2022-11-13T06:40:11;17.85;;;10.32;;
43841;SDS011;29495;49.970;20.842;2022-11-13T06:42:56;17.90;;;9.55;;
43841;SDS011;29495;49.970;20.842;2022-11-13T06:45:40;17.30;;;9.32;;
43841;SDS011;29495;49.970;20.842;2022-11-13T06:48:25;17.67;;;10.55;;
43841;SDS011;29495;49.970;20.842;2022-11-13T06:51:14;17.42;;;9.85;;
43841;SDS011;29495;49.970;20.842;2022-11-13T06:54:03;16.48;;;9.07;;
43841;SDS011;29495;49.970;20.842;2022-11-13T06:56:48;15.30;;;8.45;;
43841;SDS011;29495;49.970;20.842;2022-11-13T06:59:32;17.38;;;8.30;;
43841;SDS011;29495;49.970;20.842;2022-11-13T07:02:17;19.35;;;9.70;;
43841;SDS011;29495;49.970;20.842;2022-11-13T07:05:01;18.42;;;9.00;;
43841;SDS011;29495;49.970;20.842;2022-11-13T07:07:46;18.70;;;9.07;;
43841;SDS011;29495;49.970;20.842;2022-11-13T07:10:30;22.95;;;11.02;;
43841;SDS011;29495;49.970;20.842;2022-11-13T07:13:15;21.13;;;9.90;;
43841;SDS011;29495;49.970;20.842;2022-11-13T07:16:00;23.80;;;12.27;;
43841;SDS011;29495;49.970;20.842;2022-11-13T07:18:50;20.98;;;10.45;;
43841;SDS011;29495;49.970;20.842;2022-11-13T07:21:35;18.75;;;9.65;;
43841;SDS011;29495;49.970;20.842;2022-11-13T07:24:19;20.90;;;10.30;;
43841;SDS011;29495;49.970;20.842;2022-11-13T07:27:04;20.00;;;10.07;;
43841;SDS011;29495;49.970;20.842;2022-11-13T07:29:48;15.40;;;9.02;;
43841;SDS011;29495;49.970;20.842;2022-11-13T07:32:32;18.20;;;10.68;;
43841;SDS011;29495;49.970;20.842;2022-11-13T07:35:17;19.50;;;10.27;;
43841;SDS011;29495;49.970;20.842;2022-11-13T07:38:02;17.17;;;10.23;;
43841;SDS011;29495;49.970;20.842;2022-11-13T07:40:46;18.70;;;10.10;;
43841;SDS011;29495;49.970;20.842;2022-11-13T07:43:31;17.67;;;9.82;;
43841;SDS011;29495;49.970;20.842;2022-11-13T07:46:15;17.63;;;9.52;;
43841;SDS011;29495;49.970;20.842;2022-11-13T07:49:00;16.85;;;9.50;;
43841;SDS011;29495;49.970;20.842;2022-11-13T07:51:44;19.15;;;10.35;;
43841;SDS011;29495;49.970;20.842;2022-11-13T07:54:29;19.77;;;10.65;;
43841;SDS011;29495;49.970;20.842;2022-11-13T07:57:13;19.02;;;10.32;;
43841;SDS011;29495;49.970;20.842;2022-11-13T07:59:58;20.10;;;10.68;;
43841;SDS011;29495;49.970;20.842;2022-11-13T08:02:42;18.33;;;11.48;;
43841;SDS011;29495;49.970;20.842;2022-11-13T08:05:26;16.15;;;10.43;;
43841;SDS011;29495;49.970;20.842;2022-11-13T08:08:13;18.13;;;9.85;;
43841;SDS011;29495;49.970;20.842;2022-11-13T08:11:01;16.30;;;9.98;;
43841;SDS011;29495;49.970;20.842;2022-11-13T08:13:50;15.13;;;8.57;;
43841;SDS011;29495;49.970;20.842;2022-11-13T08:16:35;14.38;;;8.63;;
43841;SDS011;29495;49.970;20.842;2022-11-13T08:19:19;17.00;;;9.10;;
43841;SDS011;29495;49.970;20.842;2022-11-13T08:22:04;14.50;;;8.60;;
43841;SDS011;29495;49.970;20.842;2022-11-13T08:24:49;14.00;;;8.75;;
43841;SDS011;29495;49.970;20.842;2022-11-13T08:27:36;14.77;;;9.88;;
43841;SDS011;29495;49.970;20.842;2022-11-13T08:30:22;16.02;;;9.10;;
43841;SDS011;29495;49.970;20.842;2022-11-13T08:33:07;14.02;;;8.90;;
43841;SDS011;29495;49.970;20.842;2022-11-13T08:35:56;16.67;;;10.07;;
43841;SDS011;29495;49.970;20.842;2022-11-13T08:38:41;13.95;;;8.27;;
43841;SDS011;29495;49.970;20.842;2022-11-13T08:41:26;14.05;;;9.20;;
43841;SDS011;29495;49.970;20.842;2022-11-13T08:44:10;16.08;;;9.80;;
43841;SDS011;29495;49.970;20.842;2022-11-13T08:46:56;15.73;;;9.60;;
43841;SDS011;29495;49.970;20.842;2022-11-13T08:49:41;15.77;;;9.63;;
43841;SDS011;29495;49.970;20.842;2022-11-13T08:52:26;17.63;;;10.40;;
43841;SDS011;29495;49.970;20.842;2022-11-13T08:55:11;18.30;;;9.68;;
43841;SDS011;29495;49.970;20.842;2022-11-13T08:57:59;17.38;;;10.48;;
43841;SDS011;29495;49.970;20.842;2022-11-13T09:00:45;18.17;;;10.80;;
43841;SDS011;29495;49.970;20.842;2022-11-13T09:03:30;15.90;;;10.07;;
43841;SDS011;29495;49.970;20.842;2022-11-13T09:06:15;17.83;;;10.27;;
43841;SDS011;29495;49.970;20.842;2022-11-13T09:08:59;18.85;;;10.07;;
43841;SDS011;29495;49.970;20.842;2022-11-13T09:11:44;18.67;;;11.20;;
43841;SDS011;29495;49.970;20.842;2022-11-13T09:14:28;22.52;;;13.80;;
43841;SDS011;29495;49.970;20.842;2022-11-13T09:17:13;23.77;;;14.90;;
43841;SDS011;29495;49.970;20.842;2022-11-13T09:19:58;21.48;;;13.93;;
43841;SDS011;29495;49.970;20.842;2022-11-13T09:22:43;21.30;;;13.45;;
43841;SDS011;29495;49.970;20.842;2022-11-13T09:25:28;21.67;;;12.95;;
43841;SDS011;29495;49.970;20.842;2022-11-13T09:28:13;23.52;;;11.73;;
43841;SDS011;29495;49.970;20.842;2022-11-13T09:30:58;21.50;;;12.75;;
43841;SDS011;29495;49.970;20.842;2022-11-13T09:33:42;17.65;;;10.45;;
43841;SDS011;29495;49.970;20.842;2022-11-13T09:36:27;19.20;;;10.95;;
43841;SDS011;29495;49.970;20.842;2022-11-13T09:39:11;19.02;;;12.85;;
43841;SDS011;29495;49.970;20.842;2022-11-13T09:41:58;20.63;;;12.57;;
43841;SDS011;29495;49.970;20.842;2022-11-13T09:45:00;19.55;;;12.65;;
43841;SDS011;29495;49.970;20.842;2022-11-13T09:47:53;20.75;;;13.40;;
43841;SDS011;29495;49.970;20.842;2022-11-13T09:50:38;19.73;;;12.30;;
43841;SDS011;29495;49.970;20.842;2022-11-13T09:53:24;19.95;;;12.27;;
43841;SDS011;29495;49.970;20.842;2022-11-13T10:08:15;15.35;;;9.70;;
43841;SDS011;29495;49.970;20.842;2022-11-13T10:11:35;18.48;;;11.00;;
43841;SDS011;29495;49.970;20.842;2022-11-13T10:14:27;21.52;;;12.73;;
43841;SDS011;29495;49.970;20.842;2022-11-13T10:23:34;19.55;;;12.23;;
43841;SDS011;29495;49.970;20.842;2022-11-13T10:26:22;20.13;;;12.48;;
43841;SDS011;29495;49.970;20.842;2022-11-13T10:29:11;18.08;;;12.02;;
43841;SDS011;29495;49.970;20.842;2022-11-13T10:31:57;19.98;;;12.93;;
43841;SDS011;29495;49.970;20.842;2022-11-13T10:34:48;18.60;;;11.20;;
43841;SDS011;29495;49.970;20.842;2022-11-13T10:40:36;21.50;;;12.73;;
43841;SDS011;29495;49.970;20.842;2022-11-13T10:43:23;15.65;;;10.90;;
43841;SDS011;29495;49.970;20.842;2022-11-13T10:46:15;16.38;;;9.48;;
43841;SDS011;29495;49.970;20.842;2022-11-13T10:49:11;15.82;;;9.60;;
43841;SDS011;29495;49.970;20.842;2022-11-13T10:52:11;14.80;;;9.05;;
43841;SDS011;29495;49.970;20.842;2022-11-13T10:55:10;16.20;;;9.38;;
43841;SDS011;29495;49.970;20.842;2022-11-13T10:58:15;14.57;;;9.00;;
43841;SDS011;29495;49.970;20.842;2022-11-13T11:01:11;16.73;;;9.95;;
43841;SDS011;29495;49.970;20.842;2022-11-13T11:03:57;17.95;;;10.90;;
43841;SDS011;29495;49.970;20.842;2022-11-13T11:06:42;15.52;;;10.25;;
43841;SDS011;29495;49.970;20.842;2022-11-13T11:09:27;15.77;;;9.30;;
43841;SDS011;29495;49.970;20.842;2022-11-13T11:12:16;16.45;;;10.43;;
43841;SDS011;29495;49.970;20.842;2022-11-13T11:15:37;17.83;;;11.50;;
43841;SDS011;29495;49.970;20.842;2022-11-13T11:18:43;14.25;;;9.75;;
43841;SDS011;29495;49.970;20.842;2022-11-13T11:21:45;15.68;;;10.20;;
43841;SDS011;29495;49.970;20.842;2022-11-13T11:24:38;16.77;;;11.05;;
43841;SDS011;29495;49.970;20.842;2022-11-13T11:27:34;16.58;;;10.27;;
43841;SDS011;29495;49.970;20.842;2022-11-13T11:30:38;14.25;;;8.65;;
43841;SDS011;29495;49.970;20.842;2022-11-13T11:33:42;15.70;;;10.20;;
43841;SDS011;29495;49.970;20.842;2022-11-13T11:48:13;20.00;;;12.35;;
43841;SDS011;29495;49.970;20.842;2022-11-13T11:56:56;16.40;;;11.05;;
43841;SDS011;29495;49.970;20.842;2022-11-13T12:08:23;17.98;;;11.10;;
43841;SDS011;29495;49.970;20.842;2022-11-13T12:11:27;16.98;;;12.10;;
43841;SDS011;29495;49.970;20.842;2022-11-13T12:14:32;20.20;;;12.88;;
43841;SDS011;29495;49.970;20.842;2022-11-13T12:33:03;23.60;;;14.98;;
43841;SDS011;29495;49.970;20.842;2022-11-13T12:36:09;20.00;;;12.52;;
43841;SDS011;29495;49.970;20.842;2022-11-13T12:51:03;20.83;;;12.98;;
43841;SDS011;29495;49.970;20.842;2022-11-13T12:53:57;22.25;;;14.13;;
43841;SDS011;29495;49.970;20.842;2022-11-13T12:56:41;19.85;;;13.13;;
43841;SDS011;29495;49.970;20.842;2022-11-13T12:59:30;28.73;;;17.30;;
43841;SDS011;29495;49.970;20.842;2022-11-13T13:05:18;29.33;;;16.70;;
43841;SDS011;29495;49.970;20.842;2022-11-13T13:11:28;26.42;;;15.23;;
43841;SDS011;29495;49.970;20.842;2022-11-13T13:17:38;31.33;;;17.58;;
43841;SDS011;29495;49.970;20.842;2022-11-13T13:20:28;27.40;;;17.58;;
43841;SDS011;29495;49.970;20.842;2022-11-13T13:23:28;32.33;;;19.83;;
43841;SDS011;29495;49.970;20.842;2022-11-13T13:26:16;35.72;;;20.23;;
43841;SDS011;29495;49.970;20.842;2022-11-13T13:29:07;30.15;;;18.45;;
43841;SDS011;29495;49.970;20.842;2022-11-13T13:32:02;27.33;;;16.27;;
43841;SDS011;29495;49.970;20.842;2022-11-13T13:35:06;26.00;;;15.25;;
43841;SDS011;29495;49.970;20.842;2022-11-13T13:38:22;28.50;;;16.85;;
43841;SDS011;29495;49.970;20.842;2022-11-13T13:46:59;30.38;;;19.30;;
43841;SDS011;29495;49.970;20.842;2022-11-13T13:49:53;30.23;;;18.58;;
43841;SDS011;29495;49.970;20.842;2022-11-13T13:52:38;32.42;;;21.10;;
43841;SDS011;29495;49.970;20.842;2022-11-13T13:58:16;28.98;;;14.82;;
43841;SDS011;29495;49.970;20.842;2022-11-13T14:01:13;26.67;;;13.57;;
43841;SDS011;29495;49.970;20.842;2022-11-13T14:07:00;22.98;;;13.23;;
43841;SDS011;29495;49.970;20.842;2022-11-13T14:09:45;18.45;;;11.32;;
43841;SDS011;29495;49.970;20.842;2022-11-13T14:12:30;20.20;;;12.05;;
43841;SDS011;29495;49.970;20.842;2022-11-13T14:15:25;28.55;;;16.02;;
43841;SDS011;29495;49.970;20.842;2022-11-13T14:18:12;21.95;;;12.80;;
43841;SDS011;29495;49.970;20.842;2022-11-13T14:21:00;22.42;;;14.05;;
43841;SDS011;29495;49.970;20.842;2022-11-13T14:23:50;25.85;;;14.75;;
43841;SDS011;29495;49.970;20.842;2022-11-13T14:26:37;27.00;;;15.93;;
43841;SDS011;29495;49.970;20.842;2022-11-13T14:29:34;26.48;;;14.85;;
43841;SDS011;29495;49.970;20.842;2022-11-13T14:32:42;25.67;;;14.18;;
43841;SDS011;29495;49.970;20.842;2022-11-13T14:35:27;26.35;;;15.05;;
43841;SDS011;29495;49.970;20.842;2022-11-13T14:38:17;22.10;;;13.10;;
43841;SDS011;29495;49.970;20.842;2022-11-13T14:41:04;21.63;;;12.35;;
43841;SDS011;29495;49.970;20.842;2022-11-13T14:43:50;21.40;;;13.35;;
43841;SDS011;29495;49.970;20.842;2022-11-13T14:46:36;25.08;;;15.20;;
43841;SDS011;29495;49.970;20.842;2022-11-13T14:49:26;25.75;;;14.27;;
43841;SDS011;29495;49.970;20.842;2022-11-13T14:52:26;25.80;;;14.52;;
43841;SDS011;29495;49.970;20.842;2022-11-13T14:55:21;23.20;;;13.82;;
43841;SDS011;29495;49.970;20.842;2022-11-13T14:58:10;23.70;;;13.85;;
43841;SDS011;29495;49.970;20.842;2022-11-13T15:00:57;25.98;;;14.68;;
43841;SDS011;29495;49.970;20.842;2022-11-13T15:04:00;24.35;;;14.68;;
43841;SDS011;29495;49.970;20.842;2022-11-13T15:06:45;24.38;;;14.60;;
43841;SDS011;29495;49.970;20.842;2022-11-13T15:09:31;21.70;;;13.18;;
43841;SDS011;29495;49.970;20.842;2022-11-13T15:12:16;22.48;;;13.13;;
43841;SDS011;29495;49.970;20.842;2022-11-13T15:15:00;21.40;;;13.13;;
43841;SDS011;29495;49.970;20.842;2022-11-13T15:17:45;22.15;;;13.32;;
43841;SDS011;29495;49.970;20.842;2022-11-13T15:20:32;25.77;;;14.23;;
43841;SDS011;29495;49.970;20.842;2022-11-13T15:23:17;21.60;;;12.98;;
43841;SDS011;29495;49.970;20.842;2022-11-13T15:26:04;28.38;;;16.02;;
43841;SDS011;29495;49.970;20.842;2022-11-13T15:28:49;26.67;;;16.15;;
43841;SDS011;29495;49.970;20.842;2022-11-13T15:31:34;29.65;;;18.05;;
43841;SDS011;29495;49.970;20.842;2022-11-13T15:34:21;37.22;;;19.20;;
43841;SDS011;29495;49.970;20.842;2022-11-13T15:37:10;30.88;;;16.60;;
43841;SDS011;29495;49.970;20.842;2022-11-13T15:39:58;33.88;;;19.70;;
43841;SDS011;29495;49.970;20.842;2022-11-13T15:42:42;33.05;;;18.58;;
43841;SDS011;29495;49.970;20.842;2022-11-13T15:45:27;32.25;;;18.65;;
43841;SDS011;29495;49.970;20.842;2022-11-13T15:48:11;31.52;;;19.13;;
43841;SDS011;29495;49.970;20.842;2022-11-13T15:50:56;32.90;;;18.70;;
43841;SDS011;29495;49.970;20.842;2022-11-13T15:53:42;31.23;;;17.48;;
43841;SDS011;29495;49.970;20.842;2022-11-13T15:56:31;32.53;;;18.38;;
43841;SDS011;29495;49.970;20.842;2022-11-13T15:59:16;35.17;;;19.50;;
43841;SDS011;29495;49.970;20.842;2022-11-13T16:02:00;38.20;;;20.35;;
43841;SDS011;29495;49.970;20.842;2022-11-13T16:04:46;32.33;;;18.30;;
43841;SDS011;29495;49.970;20.842;2022-11-13T16:07:31;35.42;;;18.98;;
43841;SDS011;29495;49.970;20.842;2022-11-13T16:10:16;34.13;;;17.75;;
43841;SDS011;29495;49.970;20.842;2022-11-13T16:13:00;35.05;;;19.48;;
43841;SDS011;29495;49.970;20.842;2022-11-13T16:15:46;37.92;;;22.63;;
43841;SDS011;29495;49.970;20.842;2022-11-13T16:18:32;38.50;;;19.30;;
43841;SDS011;29495;49.970;20.842;2022-11-13T16:21:18;31.95;;;16.95;;
43841;SDS011;29495;49.970;20.842;2022-11-13T16:24:04;34.08;;;19.05;;
43841;SDS011;29495;49.970;20.842;2022-11-13T16:26:49;33.20;;;19.58;;
43841;SDS011;29495;49.970;20.842;2022-11-13T16:29:39;33.60;;;19.27;;
43841;SDS011;29495;49.970;20.842;2022-11-13T16:32:24;34.60;;;19.73;;
43841;SDS011;29495;49.970;20.842;2022-11-13T16:35:15;33.70;;;19.17;;
43841;SDS011;29495;49.970;20.842;2022-11-13T16:38:01;32.85;;;19.52;;
43841;SDS011;29495;49.970;20.842;2022-11-13T16:40:45;29.23;;;17.13;;
43841;SDS011;29495;49.970;20.842;2022-11-13T16:43:30;26.58;;;15.15;;
43841;SDS011;29495;49.970;20.842;2022-11-13T16:49:22;26.98;;;15.18;;
43841;SDS011;29495;49.970;20.842;2022-11-13T16:52:07;27.13;;;16.50;;
43841;SDS011;29495;49.970;20.842;2022-11-13T16:54:51;27.98;;;15.80;;
43841;SDS011;29495;49.970;20.842;2022-11-13T16:57:36;27.88;;;16.45;;
43841;SDS011;29495;49.970;20.842;2022-11-13T17:00:20;28.58;;;15.77;;
43841;SDS011;29495;49.970;20.842;2022-11-13T17:03:08;28.65;;;17.20;;
43841;SDS011;29495;49.970;20.842;2022-11-13T17:05:52;28.45;;;15.98;;
43841;SDS011;29495;49.970;20.842;2022-11-13T17:08:37;36.47;;;22.15;;
43841;SDS011;29495;49.970;20.842;2022-11-13T17:11:22;33.78;;;18.38;;
43841;SDS011;29495;49.970;20.842;2022-11-13T17:14:08;32.63;;;17.48;;
43841;SDS011;29495;49.970;20.842;2022-11-13T17:16:57;32.55;;;16.92;;
43841;SDS011;29495;49.970;20.842;2022-11-13T17:19:42;32.25;;;18.00;;
43841;SDS011;29495;49.970;20.842;2022-11-13T17:22:27;33.97;;;18.42;;
43841;SDS011;29495;49.970;20.842;2022-11-13T17:25:11;32.15;;;17.77;;
43841;SDS011;29495;49.970;20.842;2022-11-13T17:27:56;38.95;;;22.10;;
43841;SDS011;29495;49.970;20.842;2022-11-13T17:30:41;35.53;;;18.50;;
43841;SDS011;29495;49.970;20.842;2022-11-13T17:33:25;36.55;;;20.88;;
43841;SDS011;29495;49.970;20.842;2022-11-13T17:36:10;43.55;;;24.40;;
43841;SDS011;29495;49.970;20.842;2022-11-13T17:38:55;44.05;;;24.90;;
43841;SDS011;29495;49.970;20.842;2022-11-13T17:41:39;34.58;;;19.42;;
43841;SDS011;29495;49.970;20.842;2022-11-13T17:44:24;34.35;;;18.75;;
43841;SDS011;29495;49.970;20.842;2022-11-13T17:47:09;43.78;;;24.10;;
43841;SDS011;29495;49.970;20.842;2022-11-13T17:49:53;40.85;;;21.80;;
43841;SDS011;29495;49.970;20.842;2022-11-13T17:52:39;38.80;;;22.20;;